createdAt,value
2017-04-09T00:00:31.060Z,5.40
2017-04-09T00:01:30.807Z,5.40
2017-04-09T00:02:30.651Z,5.30
2017-04-09T00:03:30.400Z,5.20
2017-04-09T00:04:30.160Z,5.20
2017-04-09T00:05:29.879Z,5.20
2017-04-09T00:06:29.592Z,5.10
2017-04-09T00:07:29.416Z,5.10
2017-04-09T00:08:29.200Z,5.10
2017-04-09T00:09:28.887Z,5.10
2017-04-09T00:10:28.642Z,5.10
2017-04-09T00:11:28.594Z,5.10
2017-04-09T00:12:28.431Z,5.10
2017-04-09T00:13:28.353Z,5.20
2017-04-09T00:14:28.198Z,5.20
2017-04-09T00:15:27.992Z,5.10
2017-04-09T00:16:27.669Z,5.10
2017-04-09T00:17:27.383Z,5.10
2017-04-09T00:18:27.163Z,5.10
2017-04-09T00:19:26.945Z,5.10
2017-04-09T00:20:26.639Z,5.10
2017-04-09T00:21:26.403Z,5.20
2017-04-09T00:22:26.119Z,5.10
2017-04-09T00:23:25.832Z,5.00
2017-04-09T00:24:25.546Z,4.90
2017-04-09T00:25:25.247Z,4.90
2017-04-09T00:26:24.982Z,4.90
2017-04-09T00:27:24.732Z,4.90
2017-04-09T00:28:24.436Z,4.90
2017-04-09T00:29:24.178Z,4.80
2017-04-09T00:30:24.038Z,4.80
2017-04-09T00:31:23.734Z,4.80
2017-04-09T00:32:23.508Z,4.70
2017-04-09T00:33:23.180Z,4.80
2017-04-09T00:34:23.237Z,4.90
2017-04-09T00:35:23.052Z,4.80
2017-04-09T00:36:22.809Z,4.80
2017-04-09T00:37:22.499Z,4.80
2017-04-09T00:38:22.199Z,4.80
2017-04-09T00:39:21.916Z,4.80
2017-04-09T00:40:21.628Z,5.00
2017-04-09T00:41:22.291Z,5.00
2017-04-09T00:42:22.067Z,5.00
2017-04-09T00:43:25.959Z,5.10
2017-04-09T00:44:25.627Z,5.00
2017-04-09T00:45:25.419Z,4.80
2017-04-09T00:46:25.103Z,4.80
2017-04-09T00:47:25.135Z,4.80
2017-04-09T00:48:24.812Z,4.70
2017-04-09T00:49:24.504Z,4.70
2017-04-09T00:50:24.217Z,4.70
2017-04-09T00:51:23.913Z,4.70
2017-04-09T00:52:23.599Z,4.80
2017-04-09T00:53:23.287Z,4.80
2017-04-09T00:54:23.307Z,4.70
2017-04-09T00:55:23.035Z,4.60
2017-04-09T00:56:22.760Z,4.60
2017-04-09T00:57:22.828Z,4.70
2017-04-09T00:58:23.132Z,4.70
2017-04-09T00:59:23.048Z,4.60
2017-04-09T01:00:22.813Z,4.60
2017-04-09T01:01:22.491Z,4.60
2017-04-09T01:02:22.191Z,4.70
2017-04-09T01:03:21.901Z,4.60
2017-04-09T01:04:21.656Z,4.60
2017-04-09T01:05:21.376Z,4.60
2017-04-09T01:06:21.092Z,4.50
2017-04-09T01:07:20.783Z,4.50
2017-04-09T01:08:20.589Z,4.50
2017-04-09T01:09:20.473Z,4.50
2017-04-09T01:10:20.303Z,4.50
2017-04-09T01:11:20.177Z,4.50
2017-04-09T01:12:19.865Z,4.50
2017-04-09T01:13:19.555Z,4.50
2017-04-09T01:14:19.271Z,4.50
2017-04-09T01:15:25.035Z,4.40
2017-04-09T01:16:24.864Z,4.30
2017-04-09T01:17:24.681Z,4.30
2017-04-09T01:18:24.487Z,4.40
2017-04-09T01:19:24.275Z,4.30
2017-04-09T01:20:24.017Z,4.30
2017-04-09T01:21:23.707Z,4.30
2017-04-09T01:22:23.646Z,4.40
2017-04-09T01:23:23.376Z,4.40
2017-04-09T01:24:23.206Z,4.40
2017-04-09T01:25:23.550Z,4.40
2017-04-09T01:26:23.380Z,4.40
2017-04-09T01:27:23.141Z,4.30
2017-04-09T01:28:22.772Z,4.20
2017-04-09T01:29:22.475Z,4.10
2017-04-09T01:30:23.240Z,4.10
2017-04-09T01:31:23.089Z,4.20
2017-04-09T01:32:22.782Z,4.10
2017-04-09T01:33:22.503Z,4.00
2017-04-09T01:34:22.225Z,4.00
2017-04-09T01:35:21.896Z,4.00
2017-04-09T01:36:21.689Z,4.10
2017-04-09T01:37:21.379Z,4.10
2017-04-09T01:38:21.107Z,4.10
2017-04-09T01:39:20.875Z,4.30
2017-04-09T01:40:20.671Z,4.30
2017-04-09T01:41:20.427Z,4.30
2017-04-09T01:42:20.268Z,4.30
2017-04-09T01:43:20.016Z,4.30
2017-04-09T01:44:19.735Z,4.40
2017-04-09T01:45:19.547Z,4.30
2017-04-09T01:46:19.383Z,4.20
2017-04-09T01:47:19.243Z,4.20
2017-04-09T01:49:27.973Z,4.20
2017-04-09T01:50:27.699Z,4.10
2017-04-09T01:51:27.459Z,4.10
2017-04-09T01:52:27.167Z,4.00
2017-04-09T01:53:26.891Z,4.00
2017-04-09T01:54:26.581Z,3.90
2017-04-09T01:55:26.235Z,3.90
2017-04-09T01:56:25.950Z,3.90
2017-04-09T01:57:25.853Z,4.00
2017-04-09T01:58:25.533Z,4.00
2017-04-09T01:59:25.255Z,4.10
2017-04-09T02:00:24.951Z,4.10
2017-04-09T02:01:24.675Z,4.10
2017-04-09T02:02:24.441Z,4.10
2017-04-09T02:03:24.174Z,4.10
2017-04-09T02:04:23.890Z,4.10
2017-04-09T02:05:23.603Z,4.10
2017-04-09T02:06:23.316Z,4.10
2017-04-09T02:07:22.987Z,4.10
2017-04-09T02:08:22.697Z,4.10
2017-04-09T02:09:22.393Z,4.10
2017-04-09T02:10:22.223Z,4.10
2017-04-09T02:11:22.274Z,4.00
2017-04-09T02:12:22.101Z,4.00
2017-04-09T02:13:21.930Z,3.90
2017-04-09T02:14:21.696Z,4.00
2017-04-09T02:15:21.420Z,4.10
2017-04-09T02:16:21.124Z,4.10
2017-04-09T02:17:20.855Z,4.10
2017-04-09T02:18:20.628Z,4.00
2017-04-09T02:19:20.327Z,4.10
2017-04-09T02:20:20.075Z,3.90
2017-04-09T02:21:19.915Z,3.90
2017-04-09T02:22:19.681Z,3.90
2017-04-09T02:23:19.469Z,3.90
2017-04-09T02:24:19.196Z,3.90
2017-04-09T02:25:18.898Z,3.90
2017-04-09T02:26:18.580Z,3.90
2017-04-09T02:27:18.352Z,3.90
2017-04-09T02:28:18.050Z,3.80
2017-04-09T02:29:17.711Z,3.80
2017-04-09T02:30:17.509Z,3.70
2017-04-09T02:31:17.376Z,3.70
2017-04-09T02:32:17.072Z,3.80
2017-04-09T02:33:17.269Z,3.70
2017-04-09T02:34:16.976Z,3.70
2017-04-09T02:35:16.706Z,3.80
2017-04-09T02:36:16.462Z,3.80
2017-04-09T02:37:16.196Z,3.70
2017-04-09T02:38:15.873Z,3.60
2017-04-09T02:39:15.583Z,3.60
2017-04-09T02:40:15.232Z,3.60
2017-04-09T02:41:14.941Z,3.70
2017-04-09T02:42:14.862Z,3.70
2017-04-09T02:43:14.592Z,3.70
2017-04-09T02:44:14.280Z,3.60
2017-04-09T02:45:14.085Z,3.50
2017-04-09T02:46:13.827Z,3.40
2017-04-09T02:47:13.536Z,3.50
2017-04-09T02:48:13.244Z,3.60
2017-04-09T02:49:12.950Z,3.70
2017-04-09T02:50:12.697Z,3.70
2017-04-09T02:51:12.407Z,3.70
2017-04-09T02:52:12.352Z,3.60
2017-04-09T02:53:12.107Z,3.50
2017-04-09T02:54:11.954Z,3.40
2017-04-09T02:55:11.640Z,3.40
2017-04-09T02:56:11.531Z,3.40
2017-04-09T02:57:11.311Z,3.40
2017-04-09T02:58:11.019Z,3.40
2017-04-09T02:59:10.712Z,3.60
2017-04-09T03:00:10.569Z,3.60
2017-04-09T03:01:10.266Z,3.70
2017-04-09T03:02:09.996Z,3.70
2017-04-09T03:03:09.746Z,3.70
2017-04-09T03:04:09.440Z,3.70
2017-04-09T03:05:09.154Z,3.60
2017-04-09T03:06:08.856Z,3.50
2017-04-09T03:07:08.514Z,3.60
2017-04-09T03:08:08.280Z,3.60
2017-04-09T03:09:08.056Z,3.60
2017-04-09T03:10:07.726Z,3.60
2017-04-09T03:11:07.496Z,3.60
2017-04-09T03:12:07.223Z,3.60
2017-04-09T03:13:06.968Z,3.50
2017-04-09T03:14:06.644Z,3.50
2017-04-09T03:15:06.382Z,3.50
2017-04-09T03:16:06.119Z,3.40
2017-04-09T03:17:06.058Z,3.40
2017-04-09T03:18:05.775Z,3.40
2017-04-09T03:19:05.541Z,3.40
2017-04-09T03:20:05.227Z,3.30
2017-04-09T03:21:04.947Z,3.30
2017-04-09T03:22:04.732Z,3.30
2017-04-09T03:23:04.448Z,3.30
2017-04-09T03:24:04.137Z,3.30
2017-04-09T03:25:03.848Z,3.20
2017-04-09T03:26:03.587Z,3.30
2017-04-09T03:27:03.543Z,3.30
2017-04-09T03:28:03.244Z,3.40
2017-04-09T03:29:02.950Z,3.50
2017-04-09T03:30:02.610Z,3.40
2017-04-09T03:31:02.319Z,3.30
2017-04-09T03:32:02.060Z,3.10
2017-04-09T03:33:01.824Z,3.10
2017-04-09T03:34:01.491Z,3.00
2017-04-09T03:35:01.227Z,3.00
2017-04-09T03:36:00.943Z,3.10
2017-04-09T03:37:00.655Z,3.00
2017-04-09T03:38:00.543Z,3.10
2017-04-09T03:39:00.306Z,3.10
2017-04-09T03:40:00.234Z,3.10
2017-04-09T03:41:00.888Z,3.10
2017-04-09T03:42:00.620Z,3.10
2017-04-09T03:43:00.556Z,3.10
2017-04-09T03:44:00.264Z,3.10
2017-04-09T03:44:59.990Z,3.10
2017-04-09T03:46:00.024Z,3.10
2017-04-09T03:46:59.867Z,3.20
2017-04-09T03:47:59.532Z,3.20
2017-04-09T03:48:59.271Z,3.20
2017-04-09T03:49:59.018Z,3.10
2017-04-09T03:50:58.704Z,3.10
2017-04-09T03:51:58.384Z,3.00
2017-04-09T03:52:58.060Z,3.00
2017-04-09T03:53:57.785Z,3.00
2017-04-09T03:54:57.487Z,3.10
2017-04-09T03:55:57.155Z,3.00
2017-04-09T03:56:56.892Z,3.10
2017-04-09T03:57:56.561Z,3.20
2017-04-09T03:58:56.260Z,3.20
2017-04-09T03:59:55.927Z,3.10
2017-04-09T04:00:55.887Z,3.20
2017-04-09T04:01:55.682Z,3.20
2017-04-09T04:02:55.610Z,3.20
2017-04-09T04:03:55.286Z,3.20
2017-04-09T04:04:55.032Z,3.20
2017-04-09T04:05:54.727Z,3.10
2017-04-09T04:06:54.425Z,3.10
2017-04-09T04:07:54.095Z,3.00
2017-04-09T04:08:53.808Z,3.10
2017-04-09T04:09:53.479Z,3.10
2017-04-09T04:10:53.207Z,3.10
2017-04-09T04:11:52.928Z,3.10
2017-04-09T04:12:52.597Z,3.10
2017-04-09T04:13:52.311Z,3.10
2017-04-09T04:14:52.020Z,3.20
2017-04-09T04:15:51.782Z,3.20
2017-04-09T04:16:51.472Z,3.30
2017-04-09T04:17:51.163Z,3.30
2017-04-09T04:18:50.866Z,3.40
2017-04-09T04:19:50.631Z,3.20
2017-04-09T04:20:50.363Z,3.10
2017-04-09T04:21:50.312Z,3.10
2017-04-09T04:22:49.951Z,3.10
2017-04-09T04:23:50.659Z,3.20
2017-04-09T04:24:50.443Z,3.20
2017-04-09T04:25:50.164Z,3.10
2017-04-09T04:26:49.851Z,3.20
2017-04-09T04:27:49.592Z,3.20
2017-04-09T04:28:49.271Z,3.20
2017-04-09T04:29:48.975Z,3.30
2017-04-09T04:30:48.729Z,3.30
2017-04-09T04:31:48.415Z,3.20
2017-04-09T04:32:48.063Z,3.20
2017-04-09T04:33:47.727Z,3.20
2017-04-09T04:34:47.403Z,3.30
2017-04-09T04:35:47.131Z,3.30
2017-04-09T04:36:46.831Z,3.20
2017-04-09T04:37:46.536Z,3.20
2017-04-09T04:38:46.223Z,3.30
2017-04-09T04:39:45.954Z,3.20
2017-04-09T04:40:45.679Z,3.20
2017-04-09T04:41:45.340Z,3.20
2017-04-09T04:42:45.092Z,3.30
2017-04-09T04:43:45.085Z,3.30
2017-04-09T04:44:44.946Z,3.30
2017-04-09T04:45:44.649Z,3.40
2017-04-09T04:46:44.540Z,3.40
2017-04-09T04:47:44.249Z,3.30
2017-04-09T04:48:43.926Z,3.30
2017-04-09T04:49:43.600Z,3.30
2017-04-09T04:50:43.263Z,3.20
2017-04-09T04:51:42.963Z,3.10
2017-04-09T04:52:42.656Z,3.10
2017-04-09T04:53:42.452Z,3.10
2017-04-09T04:54:42.121Z,3.00
2017-04-09T04:55:41.840Z,3.00
2017-04-09T04:56:41.549Z,3.10
2017-04-09T04:57:41.218Z,3.00
2017-04-09T04:58:40.915Z,3.00
2017-04-09T04:59:40.612Z,3.10
2017-04-09T05:00:40.330Z,3.10
2017-04-09T05:01:40.031Z,3.10
2017-04-09T05:02:39.719Z,3.10
2017-04-09T05:03:39.374Z,3.10
2017-04-09T05:04:39.031Z,3.10
2017-04-09T05:05:38.862Z,3.10
2017-04-09T05:06:38.519Z,3.10
2017-04-09T05:07:38.385Z,3.00
2017-04-09T05:08:38.148Z,3.00
2017-04-09T05:09:37.834Z,3.00
2017-04-09T05:10:37.587Z,2.90
2017-04-09T05:11:37.284Z,3.00
2017-04-09T05:12:36.976Z,3.10
2017-04-09T05:13:36.659Z,3.20
2017-04-09T05:14:36.386Z,3.20
2017-04-09T05:15:36.068Z,3.30
2017-04-09T05:16:35.731Z,3.30
2017-04-09T05:17:35.416Z,3.40
2017-04-09T05:18:35.084Z,3.40
2017-04-09T05:19:34.771Z,3.40
2017-04-09T05:20:34.459Z,3.40
2017-04-09T05:21:34.175Z,3.50
2017-04-09T05:22:33.875Z,3.50
2017-04-09T05:23:33.590Z,3.50
2017-04-09T05:24:33.325Z,3.60
2017-04-09T05:25:32.986Z,3.60
2017-04-09T05:26:32.720Z,3.70
2017-04-09T05:27:32.415Z,3.70
2017-04-09T05:28:32.299Z,3.70
2017-04-09T05:29:32.020Z,3.80
2017-04-09T05:30:31.758Z,3.90
2017-04-09T05:31:31.509Z,3.90
2017-04-09T05:32:31.365Z,3.90
2017-04-09T05:33:31.059Z,3.90
2017-04-09T05:34:30.741Z,3.90
2017-04-09T05:35:30.436Z,3.90
2017-04-09T05:36:30.123Z,4.00
2017-04-09T05:37:29.788Z,4.10
2017-04-09T05:38:29.549Z,4.30
2017-04-09T05:39:29.271Z,4.40
2017-04-09T05:40:28.939Z,4.50
2017-04-09T05:41:28.632Z,4.50
2017-04-09T05:42:28.319Z,4.60
2017-04-09T05:43:28.055Z,4.70
2017-04-09T05:44:28.136Z,4.70
2017-04-09T05:45:27.857Z,4.80
2017-04-09T05:46:27.545Z,4.90
2017-04-09T05:47:27.228Z,4.90
2017-04-09T05:48:26.867Z,5.10
2017-04-09T05:49:26.767Z,5.20
2017-04-09T05:50:26.498Z,5.30
2017-04-09T05:51:26.415Z,5.30
2017-04-09T05:52:26.164Z,5.30
2017-04-09T05:53:25.803Z,5.30
2017-04-09T05:54:25.528Z,5.30
2017-04-09T05:55:25.246Z,5.40
2017-04-09T05:56:24.906Z,5.50
2017-04-09T05:57:24.608Z,5.60
2017-04-09T05:58:24.275Z,5.70
2017-04-09T05:59:24.280Z,5.80
2017-04-09T06:00:23.963Z,5.80
2017-04-09T06:01:23.637Z,5.80
2017-04-09T06:02:23.320Z,5.90
2017-04-09T06:03:22.976Z,5.90
2017-04-09T06:04:22.683Z,5.90
2017-04-09T06:05:22.366Z,6.10
2017-04-09T06:06:22.071Z,6.10
2017-04-09T06:07:21.781Z,6.20
2017-04-09T06:08:21.533Z,6.20
2017-04-09T06:09:21.320Z,6.20
2017-04-09T06:10:21.084Z,6.20
2017-04-09T06:11:20.770Z,6.20
2017-04-09T06:12:20.892Z,6.30
2017-04-09T06:13:20.666Z,6.30
2017-04-09T06:14:20.389Z,6.30
2017-04-09T06:15:20.183Z,6.20
2017-04-09T06:16:19.894Z,6.20
2017-04-09T06:17:19.607Z,6.20
2017-04-09T06:18:19.397Z,6.30
2017-04-09T06:19:19.158Z,6.50
2017-04-09T06:20:18.819Z,6.50
2017-04-09T06:21:18.524Z,6.60
2017-04-09T06:22:18.248Z,6.70
2017-04-09T06:23:17.947Z,6.80
2017-04-09T06:24:17.692Z,6.80
2017-04-09T06:25:17.400Z,6.70
2017-04-09T06:26:17.111Z,6.60
2017-04-09T06:27:16.782Z,6.60
2017-04-09T06:28:16.448Z,6.90
2017-04-09T06:29:16.115Z,7.10
2017-04-09T06:30:15.864Z,7.30
2017-04-09T06:31:15.580Z,7.30
2017-04-09T06:32:15.451Z,7.40
2017-04-09T06:33:15.339Z,7.60
2017-04-09T06:34:15.072Z,7.80
2017-04-09T06:35:14.927Z,8.00
2017-04-09T06:36:14.679Z,8.20
2017-04-09T06:37:14.367Z,8.20
2017-04-09T06:38:14.082Z,8.30
2017-04-09T06:39:13.840Z,8.40
2017-04-09T06:40:13.555Z,8.50
2017-04-09T06:41:13.225Z,8.50
2017-04-09T06:42:13.008Z,8.60
2017-04-09T06:43:12.712Z,8.70
2017-04-09T06:44:12.578Z,8.90
2017-04-09T06:45:12.325Z,9.10
2017-04-09T06:46:12.073Z,9.30
2017-04-09T06:47:11.791Z,9.40
2017-04-09T06:48:11.491Z,9.70
2017-04-09T06:49:11.247Z,9.80
2017-04-09T06:50:11.011Z,9.80
2017-04-09T06:51:10.703Z,10.00
2017-04-09T06:52:10.400Z,10.10
2017-04-09T06:53:10.133Z,10.20
2017-04-09T06:54:09.946Z,10.40
2017-04-09T06:55:09.659Z,10.70
2017-04-09T06:56:09.809Z,10.90
2017-04-09T06:57:09.574Z,11.20
2017-04-09T06:58:09.372Z,11.50
2017-04-09T06:59:09.104Z,12.00
2017-04-09T07:00:08.823Z,12.40
2017-04-09T07:01:08.690Z,12.80
2017-04-09T07:02:08.655Z,13.10
2017-04-09T07:03:08.409Z,13.50
2017-04-09T07:04:08.112Z,13.90
2017-04-09T07:05:07.811Z,14.00
2017-04-09T07:06:07.511Z,14.10
2017-04-09T07:07:07.236Z,14.20
2017-04-09T07:08:07.002Z,14.60
2017-04-09T07:09:06.764Z,14.80
2017-04-09T07:10:06.461Z,15.20
2017-04-09T07:11:06.167Z,15.40
2017-04-09T07:12:06.224Z,15.30
2017-04-09T07:13:05.943Z,15.30
2017-04-09T07:14:05.644Z,15.40
2017-04-09T07:15:05.343Z,15.40
2017-04-09T07:16:06.010Z,15.80
2017-04-09T07:17:05.897Z,15.90
2017-04-09T07:18:05.619Z,16.40
2017-04-09T07:19:05.572Z,16.40
2017-04-09T07:20:05.322Z,16.00
2017-04-09T07:21:05.035Z,16.20
2017-04-09T07:22:04.784Z,16.90
2017-04-09T07:23:04.569Z,17.80
2017-04-09T07:24:04.272Z,18.30
2017-04-09T07:25:04.079Z,18.70
2017-04-09T07:26:03.807Z,18.60
2017-04-09T07:27:03.508Z,18.30
2017-04-09T07:28:03.243Z,17.80
2017-04-09T07:29:03.013Z,17.70
2017-04-09T07:30:02.753Z,17.80
2017-04-09T07:31:02.532Z,18.30
2017-04-09T07:32:02.297Z,18.90
2017-04-09T07:33:02.040Z,19.30
2017-04-09T07:34:01.893Z,18.90
2017-04-09T07:35:01.624Z,19.30
2017-04-09T07:36:01.371Z,19.60
2017-04-09T07:37:01.071Z,19.60
2017-04-09T07:38:01.085Z,20.10
2017-04-09T07:39:00.839Z,20.50
2017-04-09T07:40:01.038Z,20.80
2017-04-09T07:41:00.813Z,20.90
2017-04-09T07:42:00.868Z,21.10
2017-04-09T07:43:00.608Z,21.60
2017-04-09T07:44:00.369Z,22.00
2017-04-09T07:45:00.070Z,21.60
2017-04-09T07:45:59.984Z,21.40
2017-04-09T07:46:59.745Z,21.80
2017-04-09T07:47:59.497Z,22.10
2017-04-09T07:48:59.320Z,22.40
2017-04-09T07:49:59.171Z,22.20
2017-04-09T07:50:59.006Z,21.90
2017-04-09T07:51:58.739Z,22.30
2017-04-09T07:52:58.495Z,22.80
2017-04-09T07:53:58.221Z,23.00
2017-04-09T07:54:57.899Z,22.00
2017-04-09T07:55:58.311Z,22.10
2017-04-09T07:56:58.123Z,22.70
2017-04-09T07:57:57.836Z,23.30
2017-04-09T07:58:57.568Z,23.40
2017-04-09T07:59:57.283Z,23.10
2017-04-09T08:00:57.116Z,23.10
2017-04-09T08:01:56.887Z,23.40
2017-04-09T08:02:56.766Z,24.00
2017-04-09T08:03:56.514Z,24.40
2017-04-09T08:04:56.458Z,24.60
2017-04-09T08:05:56.252Z,24.60
2017-04-09T08:06:55.943Z,24.80
2017-04-09T08:07:55.729Z,25.10
2017-04-09T08:08:55.407Z,25.80
2017-04-09T08:09:55.175Z,25.50
2017-04-09T08:10:54.891Z,25.20
2017-04-09T08:11:54.861Z,25.30
2017-04-09T08:12:54.768Z,26.00
2017-04-09T08:13:54.985Z,26.80
2017-04-09T08:14:55.230Z,27.10
2017-04-09T08:15:54.969Z,26.90
2017-04-09T08:16:55.448Z,26.80
2017-04-09T08:17:56.382Z,28.00
2017-04-09T08:18:56.763Z,28.80
2017-04-09T08:19:56.486Z,29.30
2017-04-09T08:20:56.525Z,29.30
2017-04-09T08:21:58.504Z,28.60
2017-04-09T08:22:58.192Z,29.30
2017-04-09T08:23:57.942Z,30.30
2017-04-09T08:24:58.877Z,30.30
2017-04-09T08:25:59.583Z,30.00
2017-04-09T08:26:59.547Z,30.70
2017-04-09T08:28:03.035Z,30.70
2017-04-09T08:29:05.371Z,31.30
2017-04-09T08:30:07.627Z,31.10
2017-04-09T08:31:07.387Z,31.10
2017-04-09T08:32:09.220Z,31.50
2017-04-09T08:33:08.925Z,32.00
2017-04-09T08:34:08.776Z,32.50
2017-04-09T08:35:08.587Z,32.20
2017-04-09T08:36:08.312Z,31.80
2017-04-09T08:37:08.024Z,32.30
2017-04-09T08:38:07.929Z,32.10
2017-04-09T08:39:07.788Z,32.40
2017-04-09T08:40:07.854Z,32.20
2017-04-09T08:41:07.720Z,32.10
2017-04-09T08:42:07.643Z,32.30
2017-04-09T08:43:07.416Z,27.90
2017-04-09T08:44:07.122Z,24.50
2017-04-09T08:45:06.846Z,22.10
2017-04-09T08:46:06.995Z,21.10
2017-04-09T08:47:06.827Z,20.90
2017-04-09T08:48:06.563Z,20.50
2017-04-09T08:49:06.240Z,20.80
2017-04-09T08:50:06.021Z,20.20
2017-04-09T08:51:05.765Z,19.90
2017-04-09T08:52:06.358Z,20.50
2017-04-09T08:53:07.829Z,19.90
2017-04-09T08:54:07.487Z,20.40
2017-04-09T08:55:07.419Z,20.40
2017-04-09T08:56:07.183Z,21.00
2017-04-09T08:57:07.384Z,21.10
2017-04-09T08:58:08.474Z,20.40
2017-04-09T08:59:08.148Z,21.20
2017-04-09T09:00:08.379Z,20.80
2017-04-09T09:01:08.064Z,21.00
2017-04-09T09:02:07.787Z,20.90
2017-04-09T09:03:07.549Z,21.60
2017-04-09T09:04:07.853Z,20.80
2017-04-09T09:05:07.674Z,21.50
2017-04-09T09:06:07.703Z,21.10
2017-04-09T09:07:07.480Z,21.20
2017-04-09T09:08:07.272Z,21.50
2017-04-09T09:09:07.623Z,21.20
2017-04-09T09:10:07.371Z,21.20
2017-04-09T09:11:07.675Z,20.30
2017-04-09T09:12:07.368Z,20.10
2017-04-09T09:13:07.902Z,20.30
2017-04-09T09:14:07.628Z,19.80
2017-04-09T09:15:07.891Z,19.60
2017-04-09T09:16:07.593Z,19.70
2017-04-09T09:17:07.324Z,19.70
2017-04-09T09:18:07.740Z,19.50
2017-04-09T09:19:07.466Z,19.20
2017-04-09T09:20:07.545Z,19.10
2017-04-09T09:21:07.313Z,19.20
2017-04-09T09:22:07.136Z,19.10
2017-04-09T09:23:06.940Z,19.10
2017-04-09T09:24:06.719Z,19.20
2017-04-09T09:25:06.494Z,19.30
2017-04-09T09:26:06.236Z,19.30
2017-04-09T09:27:05.960Z,19.40
2017-04-09T09:28:05.680Z,19.30
2017-04-09T09:29:05.412Z,19.30
2017-04-09T09:30:05.184Z,19.00
2017-04-09T09:31:04.931Z,19.10
2017-04-09T09:32:05.715Z,19.10
2017-04-09T09:33:05.729Z,19.30
2017-04-09T09:34:05.424Z,19.20
2017-04-09T09:35:05.147Z,19.10
2017-04-09T09:36:04.930Z,19.20
2017-04-09T09:37:04.737Z,18.90
2017-04-09T09:38:04.468Z,19.10
2017-04-09T09:39:04.458Z,19.30
2017-04-09T09:40:04.194Z,19.30
2017-04-09T09:41:04.037Z,19.20
2017-04-09T09:42:03.778Z,19.30
2017-04-09T09:43:03.673Z,19.30
2017-04-09T09:44:03.490Z,19.50
2017-04-09T09:45:03.277Z,19.80
2017-04-09T09:46:03.063Z,19.70
2017-04-09T09:47:02.755Z,19.60
2017-04-09T09:48:02.546Z,19.80
2017-04-09T09:49:02.337Z,20.10
2017-04-09T09:50:02.065Z,20.20
2017-04-09T09:51:01.888Z,20.30
2017-04-09T09:52:01.683Z,21.10
2017-04-09T09:53:01.417Z,20.80
2017-04-09T09:54:01.186Z,21.00
2017-04-09T09:55:00.979Z,21.80
2017-04-09T09:56:00.733Z,22.30
2017-04-09T09:57:00.555Z,22.90
2017-04-09T09:58:00.629Z,22.90
2017-04-09T09:59:01.203Z,23.10
2017-04-09T10:00:00.957Z,23.00
2017-04-09T10:01:00.666Z,22.80
2017-04-09T10:02:00.482Z,23.00
2017-04-09T10:03:00.263Z,23.20
2017-04-09T10:04:00.248Z,23.90
2017-04-09T10:05:00.014Z,24.40
2017-04-09T10:06:00.095Z,23.80
2017-04-09T10:06:59.914Z,23.20
2017-04-09T10:07:59.673Z,23.80
2017-04-09T10:08:59.430Z,24.10
2017-04-09T10:09:59.190Z,24.10
2017-04-09T10:10:58.938Z,24.80
2017-04-09T10:11:58.700Z,25.50
2017-04-09T10:12:58.514Z,25.90
2017-04-09T10:13:59.217Z,25.90
2017-04-09T10:15:00.845Z,25.30
2017-04-09T10:16:00.709Z,25.20
2017-04-09T10:17:00.539Z,24.90
2017-04-09T10:18:00.959Z,23.40
2017-04-09T10:19:00.762Z,23.60
2017-04-09T10:20:00.536Z,22.90
2017-04-09T10:21:00.231Z,23.50
2017-04-09T10:21:59.919Z,23.90
2017-04-09T10:22:59.651Z,23.10
2017-04-09T10:24:00.130Z,23.40
2017-04-09T10:24:59.890Z,23.40
2017-04-09T10:25:59.654Z,22.70
2017-04-09T10:26:59.471Z,22.80
2017-04-09T10:27:59.256Z,20.00
2017-04-09T10:28:59.301Z,19.30
2017-04-09T10:29:59.075Z,19.90
2017-04-09T10:30:59.107Z,20.40
2017-04-09T10:31:58.911Z,20.80
2017-04-09T10:32:58.740Z,20.70
2017-04-09T10:33:58.579Z,20.60
2017-04-09T10:35:01.639Z,21.30
2017-04-09T10:36:02.288Z,21.40
2017-04-09T10:37:02.188Z,21.00
2017-04-09T10:38:01.976Z,20.80
2017-04-09T10:39:01.760Z,20.90
2017-04-09T10:40:01.619Z,21.40
2017-04-09T10:41:01.573Z,20.90
2017-04-09T10:42:01.301Z,19.80
2017-04-09T10:43:01.026Z,19.60
2017-04-09T10:44:00.745Z,20.00
2017-04-09T10:45:00.556Z,19.30
2017-04-09T10:46:00.341Z,19.00
2017-04-09T10:47:00.129Z,19.30
2017-04-09T10:48:00.036Z,20.00
2017-04-09T10:49:00.140Z,20.50
2017-04-09T10:49:59.942Z,20.30
2017-04-09T10:50:59.715Z,20.60
2017-04-09T10:51:59.745Z,20.70
2017-04-09T10:52:59.649Z,20.80
2017-04-09T10:53:59.648Z,21.10
2017-04-09T10:54:59.602Z,21.30
2017-04-09T10:55:59.530Z,21.30
2017-04-09T10:56:59.351Z,21.60
2017-04-09T10:57:59.128Z,21.90
2017-04-09T10:58:58.895Z,21.40
2017-04-09T10:59:58.695Z,21.60
2017-04-09T11:00:58.517Z,21.30
2017-04-09T11:01:58.684Z,21.50
2017-04-09T11:02:58.486Z,21.40
2017-04-09T11:03:58.256Z,21.70
2017-04-09T11:05:12.784Z,21.70
2017-04-09T11:06:12.535Z,22.90
2017-04-09T11:07:12.371Z,23.20
2017-04-09T11:08:12.148Z,23.20
2017-04-09T11:09:12.306Z,23.10
2017-04-09T11:10:12.085Z,23.40
2017-04-09T11:11:11.873Z,23.50
2017-04-09T11:12:11.736Z,23.80
2017-04-09T11:13:12.559Z,23.60
2017-04-09T11:14:12.377Z,23.70
2017-04-09T11:15:16.911Z,23.50
2017-04-09T11:16:16.838Z,23.20
2017-04-09T11:17:17.384Z,23.30
2017-04-09T11:18:17.631Z,23.50
2017-04-09T11:19:17.527Z,23.00
2017-04-09T11:20:19.438Z,22.80
2017-04-09T11:21:21.292Z,22.80
2017-04-09T11:22:25.159Z,22.70
2017-04-09T11:23:25.816Z,23.00
2017-04-09T11:24:25.934Z,22.60
2017-04-09T11:25:26.662Z,22.80
2017-04-09T11:26:27.769Z,22.80
2017-04-09T11:27:27.928Z,22.70
2017-04-09T11:28:29.035Z,23.00
2017-04-09T11:29:31.332Z,23.10
2017-04-09T11:30:31.175Z,22.80
2017-04-09T11:31:32.891Z,22.40
2017-04-09T11:32:32.761Z,22.50
2017-04-09T11:33:33.419Z,22.30
2017-04-09T11:34:33.997Z,22.60
2017-04-09T11:35:33.963Z,22.50
2017-04-09T11:36:33.992Z,22.40
2017-04-09T11:37:33.732Z,20.10
2017-04-09T11:38:34.683Z,19.60
2017-04-09T11:39:34.528Z,20.50
2017-04-09T11:40:38.595Z,21.40
2017-04-09T11:41:38.606Z,22.20
2017-04-09T11:42:38.399Z,22.80
2017-04-09T11:43:38.144Z,23.00
2017-04-09T11:44:38.011Z,23.10
2017-04-09T11:45:37.951Z,23.10
2017-04-09T11:46:37.692Z,23.00
2017-04-09T11:47:37.447Z,23.20
2017-04-09T11:48:37.699Z,23.30
2017-04-09T11:49:37.475Z,23.20
2017-04-09T11:50:37.221Z,23.30
2017-04-09T11:51:37.020Z,23.00
2017-04-09T11:52:37.217Z,23.10
2017-04-09T11:53:37.100Z,23.00
2017-04-09T11:54:36.975Z,23.00
2017-04-09T11:55:37.588Z,23.00
2017-04-09T11:56:37.796Z,23.10
2017-04-09T11:57:37.579Z,23.40
2017-04-09T11:58:37.863Z,23.30
2017-04-09T11:59:37.743Z,23.00
2017-04-09T12:00:37.495Z,23.20
2017-04-09T12:01:37.398Z,23.50
2017-04-09T12:02:37.236Z,23.40
2017-04-09T12:03:37.101Z,23.40
2017-04-09T12:04:36.826Z,23.10
2017-04-09T12:05:36.618Z,23.20
2017-04-09T12:06:36.857Z,23.40
2017-04-09T12:07:36.690Z,23.10
2017-04-09T12:08:36.659Z,23.20
2017-04-09T12:09:36.464Z,23.20
2017-04-09T12:10:36.293Z,23.10
2017-04-09T12:11:36.104Z,23.10
2017-04-09T12:12:35.884Z,23.10
2017-04-09T12:13:36.254Z,22.90
2017-04-09T12:14:36.084Z,23.10
2017-04-09T12:15:35.822Z,23.10
2017-04-09T12:16:35.571Z,23.00
2017-04-09T12:17:35.380Z,23.20
2017-04-09T12:18:35.203Z,23.10
2017-04-09T12:19:35.349Z,23.10
2017-04-09T12:20:35.237Z,23.50
2017-04-09T12:21:35.174Z,23.30
2017-04-09T12:22:35.351Z,23.30
2017-04-09T12:23:35.156Z,23.40
2017-04-09T12:24:36.514Z,23.80
2017-04-09T12:25:36.274Z,23.50
2017-04-09T12:26:37.053Z,23.60
2017-04-09T12:27:37.319Z,23.30
2017-04-09T12:28:37.123Z,23.60
2017-04-09T12:29:37.008Z,23.50
2017-04-09T12:30:37.001Z,23.70
2017-04-09T12:31:36.744Z,23.50
2017-04-09T12:32:36.536Z,23.50
2017-04-09T12:33:37.027Z,23.50
2017-04-09T12:34:36.805Z,23.40
2017-04-09T12:35:36.608Z,23.40
2017-04-09T12:36:37.110Z,23.40
2017-04-09T12:37:37.123Z,23.10
2017-04-09T12:38:37.086Z,23.30
2017-04-09T12:39:36.855Z,23.40
2017-04-09T12:40:36.734Z,23.40
2017-04-09T12:41:36.634Z,23.40
2017-04-09T12:42:36.671Z,23.30
2017-04-09T12:43:36.542Z,23.30
2017-04-09T12:44:36.771Z,23.40
2017-04-09T12:45:37.506Z,23.60
2017-04-09T12:46:38.006Z,23.20
2017-04-09T12:47:37.859Z,23.80
2017-04-09T12:48:37.910Z,23.90
2017-04-09T12:49:38.233Z,23.80
2017-04-09T12:50:38.240Z,23.90
2017-04-09T12:51:38.175Z,23.70
2017-04-09T12:52:37.963Z,23.80
2017-04-09T12:53:38.144Z,23.40
2017-04-09T12:54:38.052Z,23.60
2017-04-09T12:55:39.163Z,23.80
2017-04-09T12:56:40.416Z,23.60
2017-04-09T12:57:40.314Z,23.80
2017-04-09T12:58:41.848Z,23.80
2017-04-09T12:59:41.705Z,23.80
2017-04-09T13:00:41.528Z,23.60
2017-04-09T13:01:42.007Z,23.50
2017-04-09T13:02:41.789Z,23.50
2017-04-09T13:03:41.722Z,23.50
2017-04-09T13:04:41.490Z,23.50
2017-04-09T13:05:41.330Z,23.30